CYVR Airport Information

Runway Information
Runway 08L Length 9940 ft width 200 ft
Elevation 14 ft Threshold 0 ft Heading 99
Runway 26R Length 9940 ft Width 200 ft
Elevation 9 ft Threshold 0 ft Heading 279
Runway 08R Length 11500 ft width 200 ft
Elevation 9 ft Threshold 500 ft Heading 100
Runway 26L Length 11500 ft Width 200 ft
Elevation 6 ft Threshold 0 ft Heading 280
Runway 13 Length 7300 ft width 200 ft
Elevation 8 ft Threshold 0 ft Heading 142
Runway 31 Length 7300 ft Width 200 ft
Elevation 7 ft Threshold 0 ft Heading 322
Runway XX Length 3500 ft width 75 ft
Elevation 8 ft Threshold 0 ft Heading 100
Runway 26A Length 3500 ft Width 75 ft
Elevation 8 ft Threshold 0 ft Heading 280
Airport Frequencies
Type APP Name APP Frequency 128.6 MHZ
Type ATIS Name ATIS Frequency 124.6 MHZ
Type CLD Name CLNC DEL Frequency 121.4 MHZ
Type DEP Name DEP Frequency 126.125 MHZ
Type GND Name GND Frequency 121.7 MHZ
Type RCO Name PACIFIC RD Frequency 123.15 MHZ
Type TWR Name TWR Frequency 23.66 MHZ
Type TWR Name TWR Frequency 118.7 MHZ
Airport Navaids
Type DME Name Vancouver Frequency 111100 KHZ
Type DME Name Vancouver Frequency 111900 KHZ
Type DME Name Vancouver Frequency 109500 KHZ
Type NDB Name Vancouver Frequency 266 KHZ
Type NDB Name White Rock Frequency 332 KHZ
Type VORTAC Name Vancouver Frequency 115900 KHZ
Type NDB Name Sea Island Frequency 368 KHZ
Type NDB Name Barnes Frequency 356 KHZ
Airport Weather Information & NOTAM
ADDS - METARS form results

(0149 UTC 19 January 2018)
 
METAR text: CYVR 190143Z 12007KT 15SM -SHRA FEW025 BKN031 BKN067 07/04 A2969 RMK CU1SC4AC2 SLP056
Conditions at: CYVR (VANCOUVER INTL A, BC, CA) observed 0143 UTC 19 January 2018
Temperature: 7.0°C (45°F)
Dewpoint: 4.0°C (39°F) [RH = 81%]
Pressure (altimeter): 29.69 inches Hg (1005.5 mb)
[Sea-level pressure: 1005.6 mb]
Winds: from the ESE (120 degrees) at 8 MPH (7 knots; 3.6 m/s)
Visibility: 15 miles (24 km)
Ceiling: 3100 feet AGL
Clouds: few clouds at 2500 feet AGL
broken clouds at 3100 feet AGL
broken clouds at 6700 feet AGL
Weather: -SHRA  (light rain showers)

METAR text: CYVR 190100Z 12010KT 20SM FEW025 FEW035 SCT075 SCT210 07/04 A2968 RMK CU1SC1AC1CI1 CI TR SLP052
Conditions at: CYVR (VANCOUVER INTL A, BC, CA) observed 0100 UTC 19 January 2018
Temperature: 7.0°C (45°F)
Dewpoint: 4.0°C (39°F) [RH = 81%]
Pressure (altimeter): 29.68 inches Hg (1005.2 mb)
[Sea-level pressure: 1005.2 mb]
Winds: from the ESE (120 degrees) at 12 MPH (10 knots; 5.2 m/s)
Visibility: 20 miles (32 km)
Ceiling: at least 12,000 feet AGL
Clouds: few clouds at 2500 feet AGL
few clouds at 3500 feet AGL
scattered clouds at 7500 feet AGL
scattered clouds at 21000 feet AGL
Weather: no significant weather observed at this time